createdAt,value
2024-05-09T00:01:09.236Z,61.99
2024-05-09T00:03:38.542Z,61.50
2024-05-09T00:06:08.097Z,60.76
2024-05-09T00:08:37.486Z,62.06
2024-05-09T00:11:09.448Z,61.83
2024-05-09T00:13:38.618Z,62.58
2024-05-09T00:16:09.173Z,63.39
2024-05-09T00:18:38.456Z,64.41
2024-05-09T00:21:08.859Z,62.85
2024-05-09T00:23:38.058Z,62.45
2024-05-09T00:26:10.070Z,63.58
2024-05-09T00:28:39.260Z,63.35
2024-05-09T00:31:08.440Z,64.73
2024-05-09T00:33:37.848Z,68.27
2024-05-09T00:36:07.874Z,66.29
2024-05-09T00:38:37.319Z,66.52
2024-05-09T00:41:06.908Z,67.28
2024-05-09T00:43:38.684Z,66.41
2024-05-09T00:46:08.676Z,65.62
2024-05-09T00:48:38.223Z,64.48
2024-05-09T00:51:08.613Z,65.48
2024-05-09T00:53:38.062Z,68.09
2024-05-09T00:56:08.100Z,66.09
2024-05-09T00:58:40.698Z,67.94
2024-05-09T01:01:10.779Z,67.43
2024-05-09T01:03:40.187Z,69.34
2024-05-09T01:06:09.455Z,69.81
2024-05-09T01:08:38.736Z,69.84
2024-05-09T01:11:08.065Z,69.13
2024-05-09T01:13:39.868Z,69.86
2024-05-09T01:16:09.277Z,69.26
2024-05-09T01:18:38.612Z,70.21
2024-05-09T01:21:09.481Z,70.32
2024-05-09T01:23:41.644Z,71.03
2024-05-09T01:26:10.956Z,70.92
2024-05-09T01:28:40.128Z,71.53
2024-05-09T01:31:15.248Z,72.04
2024-05-09T01:33:45.128Z,71.96
2024-05-09T01:36:14.449Z,71.34
2024-05-09T01:38:46.169Z,71.00
2024-05-09T01:41:15.431Z,71.82
2024-05-09T01:43:44.680Z,72.62
2024-05-09T01:46:15.387Z,74.15
2024-05-09T01:48:44.675Z,74.11
2024-05-09T01:51:14.049Z,73.70
2024-05-09T01:53:46.475Z,74.30
2024-05-09T01:56:15.716Z,74.42
2024-05-09T01:58:46.112Z,73.88
2024-05-09T02:01:15.439Z,75.35
2024-05-09T02:03:47.494Z,76.85
2024-05-09T02:06:17.020Z,77.00
2024-05-09T02:08:48.820Z,75.10
2024-05-09T02:11:18.193Z,74.45
2024-05-09T02:13:47.478Z,73.47
2024-05-09T02:16:17.244Z,73.61
2024-05-09T02:18:46.449Z,74.35
2024-05-09T02:21:15.722Z,74.37
2024-05-09T02:23:45.008Z,74.17
2024-05-09T02:26:16.908Z,76.63
2024-05-09T02:28:46.251Z,76.75
2024-05-09T02:31:15.760Z,76.10
2024-05-09T02:33:42.601Z,75.67
2024-05-09T02:36:12.587Z,75.58
2024-05-09T02:38:39.607Z,77.50
2024-05-09T02:41:08.847Z,78.10
2024-05-09T02:43:38.036Z,76.27
2024-05-09T02:46:07.555Z,76.35
2024-05-09T02:48:34.317Z,77.06
2024-05-09T02:51:04.554Z,80.14
2024-05-09T02:53:31.426Z,77.37
2024-05-09T02:56:00.862Z,76.72
2024-05-09T02:58:27.522Z,77.14
2024-05-09T03:00:59.440Z,76.83
2024-05-09T03:03:26.681Z,77.19
2024-05-09T03:05:56.250Z,77.70
2024-05-09T03:08:23.025Z,78.57
2024-05-09T03:10:52.280Z,80.62
2024-05-09T03:13:19.334Z,79.05
2024-05-09T03:15:48.474Z,78.11
2024-05-09T03:18:17.755Z,77.21
2024-05-09T03:20:47.096Z,78.47
2024-05-09T03:23:13.883Z,81.69
2024-05-09T03:25:43.348Z,78.90
2024-05-09T03:28:11.289Z,78.75
2024-05-09T03:30:42.853Z,79.48
2024-05-09T03:33:10.560Z,79.94
2024-05-09T03:35:42.579Z,80.76
2024-05-09T03:38:11.938Z,79.84
2024-05-09T03:40:47.628Z,80.86
2024-05-09T03:43:17.862Z,79.08
2024-05-09T03:45:47.564Z,77.51
2024-05-09T03:48:14.555Z,76.90
2024-05-09T03:50:46.646Z,76.89
2024-05-09T03:53:14.690Z,78.29
2024-05-09T03:55:44.086Z,79.10
2024-05-09T03:58:12.802Z,78.48
2024-05-09T04:00:42.535Z,77.65
2024-05-09T04:03:11.476Z,77.47
2024-05-09T04:05:43.781Z,79.61
2024-05-09T04:08:14.283Z,79.19
2024-05-09T04:10:43.610Z,77.91
2024-05-09T04:13:10.958Z,79.93
2024-05-09T04:15:40.227Z,77.80
2024-05-09T04:18:07.287Z,77.77
2024-05-09T04:20:39.695Z,76.26
2024-05-09T04:23:10.775Z,79.23
2024-05-09T04:25:45.331Z,76.91
2024-05-09T04:28:12.745Z,76.68
2024-05-09T04:30:42.837Z,74.43
2024-05-09T04:33:12.171Z,73.34
2024-05-09T04:35:44.586Z,73.30
2024-05-09T04:38:12.017Z,72.64
2024-05-09T04:40:44.048Z,72.41
2024-05-09T04:43:15.070Z,71.48
2024-05-09T04:45:44.505Z,71.34
2024-05-09T04:48:11.600Z,68.93
2024-05-09T04:50:41.235Z,69.84
2024-05-09T04:53:10.199Z,73.41
2024-05-09T04:55:40.809Z,71.12
2024-05-09T04:58:11.533Z,70.81
2024-05-09T05:00:41.559Z,70.26
2024-05-09T05:03:12.872Z,68.66
2024-05-09T05:05:45.599Z,67.27
2024-05-09T05:08:13.888Z,66.67
2024-05-09T05:10:43.517Z,67.76
2024-05-09T05:13:16.357Z,65.48
2024-05-09T05:15:45.810Z,64.47
2024-05-09T05:18:12.512Z,64.45
2024-05-09T05:20:41.756Z,63.97
2024-05-09T05:23:10.949Z,62.46
2024-05-09T05:25:40.318Z,62.49
2024-05-09T05:28:07.373Z,62.25
2024-05-09T05:30:39.974Z,62.31
2024-05-09T05:33:09.792Z,63.31
2024-05-09T05:35:39.759Z,62.11
2024-05-09T05:38:07.544Z,62.39
2024-05-09T05:40:38.569Z,63.85
2024-05-09T05:43:07.339Z,60.61
2024-05-09T05:45:39.507Z,59.55
2024-05-09T05:48:07.582Z,62.21
2024-05-09T05:50:38.480Z,62.44
2024-05-09T05:53:07.633Z,62.23
2024-05-09T05:55:37.691Z,62.60
2024-05-09T05:58:04.803Z,61.23
2024-05-09T06:00:38.380Z,59.86
2024-05-09T06:03:10.218Z,61.10
2024-05-09T06:05:43.197Z,54.88
2024-05-09T06:08:10.293Z,58.04
2024-05-09T06:10:41.088Z,59.89
2024-05-09T06:13:10.467Z,56.56
2024-05-09T06:15:39.927Z,53.33
2024-05-09T06:18:10.890Z,53.47
2024-05-09T06:20:43.440Z,56.30
2024-05-09T06:23:11.013Z,56.61
2024-05-09T06:25:41.800Z,56.22
2024-05-09T06:28:08.457Z,56.78
2024-05-09T06:30:42.201Z,56.41
2024-05-09T06:33:14.558Z,56.93
2024-05-09T06:35:45.848Z,57.02
2024-05-09T06:38:12.961Z,55.46
2024-05-09T06:40:44.182Z,54.25
2024-05-09T06:43:12.042Z,52.74
2024-05-09T06:45:41.709Z,53.22
2024-05-09T06:48:09.800Z,53.92
2024-05-09T06:50:42.498Z,52.09
2024-05-09T06:53:09.500Z,51.69
2024-05-09T06:55:39.074Z,51.83
2024-05-09T06:58:07.071Z,50.70
2024-05-09T07:00:39.768Z,50.22
2024-05-09T07:03:11.640Z,50.44
2024-05-09T07:05:42.702Z,50.13
2024-05-09T07:08:12.568Z,49.11
2024-05-09T07:10:39.407Z,49.34
2024-05-09T07:13:10.993Z,50.87
2024-05-09T07:15:38.300Z,51.81
2024-05-09T07:18:13.832Z,50.92
2024-05-09T07:20:43.699Z,51.10
2024-05-09T07:23:13.531Z,50.49
2024-05-09T07:25:41.420Z,49.38
2024-05-09T07:28:13.874Z,48.31
2024-05-09T07:30:40.561Z,50.91
2024-05-09T07:33:10.029Z,47.27
2024-05-09T07:35:36.859Z,49.07
2024-05-09T07:38:08.775Z,47.69
2024-05-09T07:40:37.125Z,47.73
2024-05-09T07:43:06.916Z,48.21
2024-05-09T07:49:45.067Z,46.73
2024-05-09T07:53:07.633Z,48.31
2024-05-09T07:53:57.053Z,48.46
2024-05-09T07:56:26.847Z,46.98
2024-05-09T07:58:56.537Z,46.32
2024-05-09T08:01:26.575Z,46.65
2024-05-09T08:03:56.415Z,45.55
2024-05-09T08:06:23.520Z,44.48
2024-05-09T08:08:55.885Z,45.25
2024-05-09T08:11:23.770Z,44.90
2024-05-09T08:13:53.095Z,43.15
2024-05-09T08:16:19.928Z,42.34
2024-05-09T08:18:49.303Z,42.49
2024-05-09T08:21:15.979Z,42.67
2024-05-09T08:23:45.173Z,42.54
2024-05-09T08:26:14.494Z,42.28
2024-05-09T08:28:43.664Z,41.89
2024-05-09T08:31:11.640Z,40.44
2024-05-09T08:33:46.551Z,42.92
2024-05-09T08:36:13.776Z,42.91
2024-05-09T08:38:42.922Z,40.47
2024-05-09T08:41:09.551Z,40.84
2024-05-09T08:43:42.117Z,40.37
2024-05-09T08:46:09.050Z,39.03
2024-05-09T08:48:39.411Z,36.31
2024-05-09T08:51:06.962Z,35.97
2024-05-09T08:53:36.177Z,37.51
2024-05-09T08:56:02.892Z,37.30
2024-05-09T08:58:33.088Z,37.88
2024-05-09T09:01:04.027Z,36.63
2024-05-09T09:03:36.008Z,38.07
2024-05-09T09:06:06.522Z,39.46
2024-05-09T09:08:35.796Z,36.76
2024-05-09T09:11:02.949Z,37.65
2024-05-09T09:13:32.206Z,36.62
2024-05-09T09:15:59.858Z,36.64
2024-05-09T09:18:33.050Z,35.11
2024-05-09T09:20:59.988Z,36.84
2024-05-09T09:23:30.444Z,35.24
2024-05-09T09:25:58.662Z,35.44
2024-05-09T09:28:28.058Z,34.41
2024-05-09T09:31:01.457Z,34.53
2024-05-09T09:33:35.928Z,34.86
2024-05-09T09:36:03.241Z,34.57
2024-05-09T09:38:34.055Z,34.44
2024-05-09T09:41:06.156Z,36.15
2024-05-09T09:43:36.036Z,33.95
2024-05-09T09:46:06.322Z,31.88
2024-05-09T09:48:41.394Z,34.61
2024-05-09T09:51:08.427Z,33.53
2024-05-09T09:53:38.210Z,34.13
2024-05-09T09:56:07.434Z,35.37
2024-05-09T09:58:37.536Z,32.07
2024-05-09T10:01:04.696Z,33.64
2024-05-09T10:03:34.468Z,34.21
2024-05-09T10:06:05.525Z,34.57
2024-05-09T10:08:34.888Z,34.13
2024-05-09T10:11:04.365Z,34.89
2024-05-09T10:13:37.185Z,34.93
2024-05-09T10:16:08.727Z,35.51
2024-05-09T10:18:42.092Z,34.77
2024-05-09T10:21:18.686Z,32.87
2024-05-09T10:23:59.532Z,34.66
2024-05-09T10:26:33.722Z,33.89
2024-05-09T10:29:03.539Z,34.28
2024-05-09T10:31:30.420Z,35.63
2024-05-09T10:33:59.923Z,34.26
2024-05-09T10:36:29.299Z,34.28
2024-05-09T10:38:58.471Z,34.90
2024-05-09T10:41:25.292Z,35.63
2024-05-09T10:43:54.722Z,33.46
2024-05-09T10:46:21.862Z,34.03
2024-05-09T10:48:51.335Z,33.13
2024-05-09T10:51:19.089Z,31.69
2024-05-09T10:53:52.416Z,31.04
2024-05-09T10:56:19.088Z,33.55
2024-05-09T10:58:48.273Z,35.81
2024-05-09T11:01:16.657Z,35.35
2024-05-09T11:03:49.851Z,33.79
2024-05-09T11:06:18.049Z,33.09
2024-05-09T11:08:51.349Z,33.47
2024-05-09T11:11:18.201Z,32.54
2024-05-09T11:13:47.441Z,32.92
2024-05-09T11:16:19.737Z,33.58
2024-05-09T11:18:56.404Z,31.72
2024-05-09T11:21:24.233Z,31.88
2024-05-09T11:23:56.205Z,33.60
2024-05-09T11:26:25.088Z,31.68
2024-05-09T11:28:54.622Z,32.15
2024-05-09T11:31:21.727Z,32.81
2024-05-09T11:33:51.215Z,34.81
2024-05-09T11:36:17.907Z,34.73
2024-05-09T11:38:47.230Z,35.21
2024-05-09T11:41:19.270Z,34.98
2024-05-09T11:43:48.482Z,34.30
2024-05-09T11:46:15.323Z,33.62
2024-05-09T11:48:44.860Z,33.13
2024-05-09T11:51:11.553Z,33.08
2024-05-09T11:53:40.719Z,31.87
2024-05-09T11:56:07.621Z,30.80
2024-05-09T11:58:39.568Z,31.65
2024-05-09T12:01:06.429Z,31.92
2024-05-09T12:03:37.898Z,32.37
2024-05-09T12:06:04.971Z,31.45
2024-05-09T12:08:34.311Z,31.55
2024-05-09T12:11:01.220Z,34.03
2024-05-09T12:13:30.635Z,31.59
2024-05-09T12:15:59.893Z,33.37
2024-05-09T12:18:29.243Z,33.17
2024-05-09T12:20:55.957Z,33.05
2024-05-09T12:23:25.118Z,31.72
2024-05-09T12:25:52.061Z,33.01
2024-05-09T12:28:21.955Z,34.06
2024-05-09T12:30:49.831Z,33.52
2024-05-09T12:33:22.369Z,32.21
2024-05-09T12:35:50.950Z,31.27
2024-05-09T12:38:20.725Z,31.24
2024-05-09T12:40:47.401Z,32.81
2024-05-09T12:43:16.751Z,32.09
2024-05-09T12:45:43.483Z,31.96
2024-05-09T12:48:13.493Z,32.31
2024-05-09T12:50:43.170Z,33.07
2024-05-09T12:53:12.548Z,32.61
2024-05-09T12:55:47.985Z,32.38
2024-05-09T12:58:24.131Z,32.84
2024-05-09T13:00:51.854Z,32.48
2024-05-09T13:03:21.583Z,33.15
2024-05-09T13:05:51.824Z,32.47
2024-05-09T13:08:22.062Z,31.39
2024-05-09T13:10:50.106Z,30.68
2024-05-09T13:13:19.732Z,32.40
2024-05-09T13:15:46.658Z,34.11
2024-05-09T13:18:16.042Z,33.39
2024-05-09T13:20:42.716Z,32.11
2024-05-09T13:23:14.531Z,32.49
2024-05-09T13:25:41.255Z,32.82
2024-05-09T13:28:10.595Z,32.59
2024-05-09T13:30:40.728Z,33.13
2024-05-09T13:33:12.789Z,32.07
2024-05-09T13:35:45.633Z,33.22
2024-05-09T13:38:21.851Z,33.60
2024-05-09T13:40:49.244Z,32.67
2024-05-09T13:43:19.247Z,32.31
2024-05-09T13:45:46.398Z,33.08
2024-05-09T13:48:15.885Z,32.83
2024-05-09T13:50:42.733Z,32.17
2024-05-09T13:53:11.883Z,31.85
2024-05-09T13:55:41.115Z,32.59
2024-05-09T13:58:10.923Z,31.66
2024-05-09T14:00:45.917Z,32.16
2024-05-09T14:03:19.704Z,30.97
2024-05-09T14:05:48.041Z,33.56
2024-05-09T14:08:19.425Z,33.87
2024-05-09T14:10:49.299Z,33.11
2024-05-09T14:13:18.898Z,32.18
2024-05-09T14:15:46.005Z,32.58
2024-05-09T14:18:15.482Z,31.95
2024-05-09T14:20:42.699Z,33.53
2024-05-09T14:23:12.360Z,32.55
2024-05-09T14:25:42.341Z,32.68
2024-05-09T14:28:15.325Z,32.22
2024-05-09T14:30:42.785Z,33.17
2024-05-09T14:33:12.501Z,32.39
2024-05-09T14:35:39.418Z,32.91
2024-05-09T14:38:09.902Z,32.91
2024-05-09T14:40:42.248Z,33.04
2024-05-09T14:43:16.449Z,33.43
2024-05-09T14:45:43.965Z,33.94
2024-05-09T14:48:14.524Z,33.71
2024-05-09T14:50:42.050Z,34.55
2024-05-09T14:53:12.775Z,33.36
2024-05-09T14:55:41.702Z,33.63
2024-05-09T14:58:13.111Z,32.93
2024-05-09T15:00:46.581Z,32.62
2024-05-09T15:03:20.086Z,32.45
2024-05-09T15:05:47.879Z,32.78
2024-05-09T15:08:19.548Z,32.73
2024-05-09T15:10:46.685Z,32.61
2024-05-09T15:13:17.048Z,32.96
2024-05-09T15:15:46.745Z,33.15
2024-05-09T15:18:16.300Z,33.97
2024-05-09T15:20:43.902Z,32.59
2024-05-09T15:23:13.304Z,32.83
2024-05-09T15:25:40.421Z,32.75
2024-05-09T15:28:10.042Z,31.75
2024-05-09T15:30:37.364Z,32.51
2024-05-09T15:33:09.654Z,33.27
2024-05-09T15:35:41.051Z,33.04
2024-05-09T15:38:11.144Z,32.75
2024-05-09T15:40:40.395Z,33.47
2024-05-09T15:43:11.683Z,34.18
2024-05-09T15:45:39.410Z,33.66
2024-05-09T15:48:12.520Z,34.49
2024-05-09T15:50:41.633Z,33.80
2024-05-09T15:53:13.085Z,33.82
2024-05-09T15:55:41.283Z,33.12
2024-05-09T15:58:11.247Z,33.58
2024-05-09T16:00:41.615Z,33.53
2024-05-09T16:03:15.984Z,33.04
2024-05-09T16:05:43.761Z,32.78
2024-05-09T16:08:14.355Z,34.38
2024-05-09T16:10:44.466Z,33.45
2024-05-09T16:13:14.884Z,33.49
2024-05-09T16:15:43.599Z,33.84
2024-05-09T16:18:15.933Z,33.13
2024-05-09T16:20:44.834Z,32.59
2024-05-09T16:23:15.686Z,33.85
2024-05-09T16:25:45.251Z,33.28
2024-05-09T16:28:15.058Z,32.47
2024-05-09T16:30:42.133Z,33.06
2024-05-09T16:33:11.797Z,34.22
2024-05-09T16:35:41.256Z,33.40
2024-05-09T16:38:10.662Z,33.30
2024-05-09T16:40:40.321Z,33.56
2024-05-09T16:43:11.741Z,33.38
2024-05-09T16:45:40.260Z,33.12
2024-05-09T16:48:11.326Z,33.46
2024-05-09T16:50:38.719Z,33.64
2024-05-09T16:53:10.668Z,33.93
2024-05-09T16:55:37.575Z,33.71
2024-05-09T16:58:08.570Z,33.99
2024-05-09T17:00:41.076Z,33.79
2024-05-09T17:03:15.555Z,34.41
2024-05-09T17:05:43.473Z,33.44
2024-05-09T17:08:19.652Z,34.58
2024-05-09T17:10:48.307Z,34.71
2024-05-09T17:13:18.159Z,34.56
2024-05-09T17:15:47.814Z,34.51
2024-05-09T17:18:17.379Z,34.83
2024-05-09T17:20:46.637Z,34.29
2024-05-09T17:23:15.817Z,35.03
2024-05-09T17:25:45.441Z,34.99
2024-05-09T17:28:12.540Z,35.90
2024-05-09T17:30:42.828Z,35.92
2024-05-09T17:33:10.922Z,37.36
2024-05-09T17:35:41.154Z,37.25
2024-05-09T17:38:07.988Z,36.99
2024-05-09T17:40:40.256Z,37.45
2024-05-09T17:43:08.848Z,37.44
2024-05-09T17:45:40.959Z,36.97
2024-05-09T17:48:09.417Z,37.64
2024-05-09T17:50:38.952Z,37.76
2024-05-09T17:53:06.563Z,37.75
2024-05-09T17:55:36.518Z,38.48
2024-05-09T17:58:06.645Z,39.53
2024-05-09T18:00:39.911Z,39.56
2024-05-09T18:03:10.687Z,39.75
2024-05-09T18:05:40.401Z,39.87
2024-05-09T18:08:08.129Z,39.81
2024-05-09T18:10:39.690Z,39.57
2024-05-09T18:13:10.289Z,39.54
2024-05-09T18:15:40.191Z,40.91
2024-05-09T18:18:08.008Z,41.62
2024-05-09T18:20:43.765Z,41.73
2024-05-09T18:23:13.266Z,43.11
2024-05-09T18:25:43.083Z,43.32
2024-05-09T18:28:12.480Z,44.00
2024-05-09T18:30:43.579Z,44.04
2024-05-09T18:33:11.475Z,44.41
2024-05-09T18:35:41.718Z,44.54
2024-05-09T18:38:09.155Z,44.79
2024-05-09T18:40:40.266Z,46.40
2024-05-09T18:43:09.196Z,46.32
2024-05-09T18:45:41.228Z,46.69
2024-05-09T18:48:09.817Z,47.02
2024-05-09T18:50:41.339Z,47.60
2024-05-09T18:53:09.929Z,47.83
2024-05-09T18:55:39.419Z,48.55
2024-05-09T18:58:07.317Z,48.74
2024-05-09T19:00:39.663Z,49.43
2024-05-09T19:03:13.268Z,51.00
2024-05-09T19:05:45.543Z,50.97
2024-05-09T19:08:13.143Z,50.29
2024-05-09T19:10:42.433Z,51.26
2024-05-09T19:13:12.362Z,51.73
2024-05-09T19:15:44.153Z,51.37
2024-05-09T19:18:14.540Z,51.58
2024-05-09T19:20:44.498Z,50.61
2024-05-09T19:23:11.648Z,50.82
2024-05-09T19:25:41.216Z,52.21
2024-05-09T19:28:07.993Z,51.61
2024-05-09T19:30:41.138Z,52.32
2024-05-09T19:33:10.927Z,53.83
2024-05-09T19:35:44.471Z,54.68
2024-05-09T19:38:11.768Z,54.51
2024-05-09T19:40:41.243Z,55.51
2024-05-09T19:43:08.209Z,55.47
2024-05-09T19:45:37.478Z,56.22
2024-05-09T19:48:05.479Z,56.83
2024-05-09T19:50:41.687Z,56.81
2024-05-09T19:53:14.229Z,57.14
2024-05-09T19:55:43.869Z,57.47
2024-05-09T19:58:11.417Z,57.21
2024-05-09T20:00:43.518Z,56.60
2024-05-09T20:03:12.173Z,56.44
2024-05-09T20:05:41.737Z,57.04
2024-05-09T20:08:08.443Z,58.90
2024-05-09T20:10:40.536Z,59.73
2024-05-09T20:13:08.186Z,58.71
2024-05-09T20:15:38.571Z,59.40
2024-05-09T20:18:06.313Z,59.44
2024-05-09T20:20:41.195Z,60.04
2024-05-09T20:23:10.100Z,60.50
2024-05-09T20:25:42.050Z,60.68
2024-05-09T20:28:08.928Z,60.64
2024-05-09T20:30:38.345Z,61.52
2024-05-09T20:33:07.289Z,61.49
2024-05-09T20:35:37.880Z,60.95
2024-05-09T20:38:05.304Z,61.11
2024-05-09T20:40:37.988Z,61.15
2024-05-09T20:43:09.492Z,61.46
2024-05-09T20:45:39.948Z,61.82
2024-05-09T20:48:08.759Z,62.34
2024-05-09T20:50:41.285Z,62.11
2024-05-09T20:53:10.735Z,62.22
2024-05-09T20:55:40.246Z,63.02
2024-05-09T20:58:09.941Z,64.13
2024-05-09T21:00:42.943Z,63.67
2024-05-09T21:03:12.736Z,63.90
2024-05-09T21:05:42.757Z,64.21
2024-05-09T21:08:09.470Z,64.50
2024-05-09T21:10:39.199Z,65.05
2024-05-09T21:13:06.910Z,64.82
2024-05-09T21:15:39.300Z,64.48
2024-05-09T21:18:06.120Z,64.07
2024-05-09T21:20:35.527Z,63.97
2024-05-09T21:23:02.737Z,65.19
2024-05-09T21:25:32.443Z,65.90
2024-05-09T21:27:59.412Z,66.41
2024-05-09T21:30:38.402Z,67.29
2024-05-09T21:33:13.476Z,67.07
2024-05-09T21:35:44.651Z,66.68
2024-05-09T21:38:13.660Z,67.89
2024-05-09T21:40:43.302Z,68.72
2024-05-09T21:43:10.110Z,68.52
2024-05-09T21:45:39.408Z,68.11
2024-05-09T21:48:13.485Z,68.24
2024-05-09T21:50:42.970Z,68.51
2024-05-09T21:53:10.354Z,69.02
2024-05-09T21:55:39.615Z,68.71
2024-05-09T21:58:06.457Z,68.33
2024-05-09T22:00:38.379Z,68.96
2024-05-09T22:03:06.736Z,68.98
2024-05-09T22:05:39.246Z,68.63
2024-05-09T22:08:07.262Z,69.72
2024-05-09T22:10:37.224Z,69.73
2024-05-09T22:13:05.216Z,71.81
2024-05-09T22:15:37.170Z,71.41
2024-05-09T22:18:05.935Z,70.77
2024-05-09T22:20:38.466Z,69.99
2024-05-09T22:23:09.297Z,71.03
2024-05-09T22:25:39.154Z,74.93
2024-05-09T22:28:06.803Z,72.09
2024-05-09T22:30:39.172Z,71.99
2024-05-09T22:33:10.861Z,70.83
2024-05-09T22:35:41.419Z,70.50
2024-05-09T22:38:10.641Z,72.91
2024-05-09T22:40:47.286Z,72.14
2024-05-09T22:43:21.043Z,71.44
2024-05-09T22:45:52.146Z,73.86
2024-05-09T22:48:19.443Z,72.10
2024-05-09T22:50:48.771Z,72.02
2024-05-09T22:53:18.108Z,71.83
2024-05-09T22:55:48.687Z,71.21
2024-05-09T22:58:15.618Z,71.68
2024-05-09T23:00:45.071Z,72.21
2024-05-09T23:03:11.855Z,72.93
2024-05-09T23:05:41.044Z,73.08
2024-05-09T23:08:08.609Z,71.92
2024-05-09T23:10:40.438Z,72.48
2024-05-09T23:13:08.165Z,72.65
2024-05-09T23:15:38.751Z,72.36
2024-05-09T23:18:06.261Z,71.24
2024-05-09T23:20:38.884Z,73.35
2024-05-09T23:23:06.931Z,73.11
2024-05-09T23:25:36.303Z,73.15
2024-05-09T23:28:06.524Z,72.39
2024-05-09T23:30:39.587Z,71.55
2024-05-09T23:33:08.292Z,71.67
2024-05-09T23:35:37.938Z,72.33
2024-05-09T23:38:05.022Z,71.87
2024-05-09T23:40:38.820Z,71.63
2024-05-09T23:43:11.390Z,71.43
2024-05-09T23:45:41.770Z,72.25
2024-05-09T23:48:09.703Z,73.12
2024-05-09T23:50:40.465Z,73.73
2024-05-09T23:53:09.361Z,73.42
2024-05-09T23:55:39.697Z,73.35
2024-05-09T23:58:06.902Z,73.25
